sensor_id;sensor_type;location;lat;lon;timestamp;P1;durP1;ratioP1;P2;durP2;ratioP2
80694;SDS011;70059;42.702;23.312;2024-01-15T00:00:12;227.30;;;98.47;;
80694;SDS011;70059;42.702;23.312;2024-01-15T00:02:39;239.15;;;105.70;;
80694;SDS011;70059;42.702;23.312;2024-01-15T00:05:04;216.25;;;100.85;;
80694;SDS011;70059;42.702;23.312;2024-01-15T00:07:30;226.07;;;100.72;;
80694;SDS011;70059;42.702;23.312;2024-01-15T00:09:57;221.48;;;102.30;;
80694;SDS011;70059;42.702;23.312;2024-01-15T00:12:23;226.35;;;101.90;;
80694;SDS011;70059;42.702;23.312;2024-01-15T00:14:48;215.48;;;101.03;;
80694;SDS011;70059;42.702;23.312;2024-01-15T00:17:14;229.50;;;99.95;;
80694;SDS011;70059;42.702;23.312;2024-01-15T00:19:40;232.93;;;103.60;;
80694;SDS011;70059;42.702;23.312;2024-01-15T00:22:05;223.90;;;96.72;;
80694;SDS011;70059;42.702;23.312;2024-01-15T00:24:31;242.77;;;108.00;;
80694;SDS011;70059;42.702;23.312;2024-01-15T00:26:57;222.30;;;103.15;;
80694;SDS011;70059;42.702;23.312;2024-01-15T00:29:22;219.77;;;98.68;;
80694;SDS011;70059;42.702;23.312;2024-01-15T00:31:48;226.90;;;101.32;;
80694;SDS011;70059;42.702;23.312;2024-01-15T00:34:14;211.13;;;96.45;;
80694;SDS011;70059;42.702;23.312;2024-01-15T00:36:39;211.13;;;95.50;;
80694;SDS011;70059;42.702;23.312;2024-01-15T00:39:05;201.75;;;93.50;;
80694;SDS011;70059;42.702;23.312;2024-01-15T00:41:31;215.45;;;94.28;;
80694;SDS011;70059;42.702;23.312;2024-01-15T00:43:56;207.48;;;95.40;;
80694;SDS011;70059;42.702;23.312;2024-01-15T00:46:22;203.15;;;92.10;;
80694;SDS011;70059;42.702;23.312;2024-01-15T00:48:49;224.25;;;95.00;;
80694;SDS011;70059;42.702;23.312;2024-01-15T00:51:14;207.27;;;93.68;;
80694;SDS011;70059;42.702;23.312;2024-01-15T00:53:40;185.82;;;81.82;;
80694;SDS011;70059;42.702;23.312;2024-01-15T00:56:06;211.45;;;92.97;;
80694;SDS011;70059;42.702;23.312;2024-01-15T00:58:31;211.15;;;97.78;;
80694;SDS011;70059;42.702;23.312;2024-01-15T01:00:57;207.02;;;92.00;;
80694;SDS011;70059;42.702;23.312;2024-01-15T01:03:23;214.43;;;92.32;;
80694;SDS011;70059;42.702;23.312;2024-01-15T01:05:48;211.73;;;94.95;;
80694;SDS011;70059;42.702;23.312;2024-01-15T01:08:17;204.88;;;90.82;;
80694;SDS011;70059;42.702;23.312;2024-01-15T01:10:42;210.13;;;92.95;;
80694;SDS011;70059;42.702;23.312;2024-01-15T01:13:08;209.88;;;95.95;;
80694;SDS011;70059;42.702;23.312;2024-01-15T01:15:35;203.10;;;91.32;;
80694;SDS011;70059;42.702;23.312;2024-01-15T01:18:00;193.60;;;87.38;;
80694;SDS011;70059;42.702;23.312;2024-01-15T01:20:26;201.05;;;88.57;;
80694;SDS011;70059;42.702;23.312;2024-01-15T01:22:52;197.13;;;86.03;;
80694;SDS011;70059;42.702;23.312;2024-01-15T01:25:17;209.65;;;88.22;;
80694;SDS011;70059;42.702;23.312;2024-01-15T01:27:43;206.10;;;90.47;;
80694;SDS011;70059;42.702;23.312;2024-01-15T01:30:09;207.70;;;87.20;;
80694;SDS011;70059;42.702;23.312;2024-01-15T01:32:37;195.50;;;88.57;;
80694;SDS011;70059;42.702;23.312;2024-01-15T01:35:04;199.15;;;89.57;;
80694;SDS011;70059;42.702;23.312;2024-01-15T01:37:29;210.90;;;91.95;;
80694;SDS011;70059;42.702;23.312;2024-01-15T01:39:55;196.73;;;90.65;;
80694;SDS011;70059;42.702;23.312;2024-01-15T01:42:21;193.65;;;88.32;;
80694;SDS011;70059;42.702;23.312;2024-01-15T01:44:46;216.60;;;96.80;;
80694;SDS011;70059;42.702;23.312;2024-01-15T01:47:12;195.45;;;88.10;;
80694;SDS011;70059;42.702;23.312;2024-01-15T01:49:39;183.73;;;84.82;;
80694;SDS011;70059;42.702;23.312;2024-01-15T01:52:06;186.05;;;83.80;;
80694;SDS011;70059;42.702;23.312;2024-01-15T01:54:32;192.85;;;80.80;;
80694;SDS011;70059;42.702;23.312;2024-01-15T01:56:59;170.68;;;74.97;;
80694;SDS011;70059;42.702;23.312;2024-01-15T01:59:27;193.80;;;82.10;;
80694;SDS011;70059;42.702;23.312;2024-01-15T02:01:54;174.38;;;80.43;;
80694;SDS011;70059;42.702;23.312;2024-01-15T02:04:20;165.57;;;75.13;;
80694;SDS011;70059;42.702;23.312;2024-01-15T02:06:51;175.77;;;74.78;;
80694;SDS011;70059;42.702;23.312;2024-01-15T02:09:19;172.20;;;79.45;;
80694;SDS011;70059;42.702;23.312;2024-01-15T02:11:48;175.25;;;76.13;;
80694;SDS011;70059;42.702;23.312;2024-01-15T02:14:15;171.68;;;78.88;;
80694;SDS011;70059;42.702;23.312;2024-01-15T02:16:41;185.90;;;82.05;;
80694;SDS011;70059;42.702;23.312;2024-01-15T02:19:06;184.00;;;84.15;;
80694;SDS011;70059;42.702;23.312;2024-01-15T02:21:32;185.73;;;80.85;;
80694;SDS011;70059;42.702;23.312;2024-01-15T02:23:58;177.13;;;79.50;;
80694;SDS011;70059;42.702;23.312;2024-01-15T02:26:24;175.75;;;79.45;;
80694;SDS011;70059;42.702;23.312;2024-01-15T02:28:51;187.45;;;83.63;;
80694;SDS011;70059;42.702;23.312;2024-01-15T02:31:17;188.02;;;86.72;;
80694;SDS011;70059;42.702;23.312;2024-01-15T02:33:43;201.90;;;88.65;;
80694;SDS011;70059;42.702;23.312;2024-01-15T02:36:11;193.85;;;84.90;;
80694;SDS011;70059;42.702;23.312;2024-01-15T02:38:37;193.15;;;90.97;;
80694;SDS011;70059;42.702;23.312;2024-01-15T02:41:02;187.55;;;85.43;;
80694;SDS011;70059;42.702;23.312;2024-01-15T02:43:28;198.45;;;86.90;;
80694;SDS011;70059;42.702;23.312;2024-01-15T02:45:54;196.70;;;88.35;;
80694;SDS011;70059;42.702;23.312;2024-01-15T02:48:19;190.18;;;86.90;;
80694;SDS011;70059;42.702;23.312;2024-01-15T02:50:45;197.13;;;88.78;;
80694;SDS011;70059;42.702;23.312;2024-01-15T02:53:11;179.32;;;79.97;;
80694;SDS011;70059;42.702;23.312;2024-01-15T02:55:36;190.82;;;83.82;;
80694;SDS011;70059;42.702;23.312;2024-01-15T02:58:03;196.13;;;85.32;;
80694;SDS011;70059;42.702;23.312;2024-01-15T03:00:28;182.85;;;81.72;;
80694;SDS011;70059;42.702;23.312;2024-01-15T03:02:54;185.90;;;79.95;;
80694;SDS011;70059;42.702;23.312;2024-01-15T03:05:20;172.82;;;77.82;;
80694;SDS011;70059;42.702;23.312;2024-01-15T03:07:46;174.45;;;77.13;;
80694;SDS011;70059;42.702;23.312;2024-01-15T03:10:12;164.75;;;75.38;;
80694;SDS011;70059;42.702;23.312;2024-01-15T03:12:38;173.80;;;75.15;;
80694;SDS011;70059;42.702;23.312;2024-01-15T03:15:04;174.07;;;76.70;;
80694;SDS011;70059;42.702;23.312;2024-01-15T03:17:31;200.35;;;81.22;;
80694;SDS011;70059;42.702;23.312;2024-01-15T03:19:56;190.80;;;82.50;;
80694;SDS011;70059;42.702;23.312;2024-01-15T03:22:22;189.77;;;81.25;;
80694;SDS011;70059;42.702;23.312;2024-01-15T03:24:48;177.68;;;74.85;;
80694;SDS011;70059;42.702;23.312;2024-01-15T03:27:13;180.85;;;78.30;;
80694;SDS011;70059;42.702;23.312;2024-01-15T03:29:40;181.07;;;78.63;;
80694;SDS011;70059;42.702;23.312;2024-01-15T03:32:06;174.13;;;75.07;;
80694;SDS011;70059;42.702;23.312;2024-01-15T03:34:32;171.57;;;71.72;;
80694;SDS011;70059;42.702;23.312;2024-01-15T03:36:57;168.80;;;72.93;;
80694;SDS011;70059;42.702;23.312;2024-01-15T03:39:24;161.80;;;70.30;;
80694;SDS011;70059;42.702;23.312;2024-01-15T03:41:50;152.77;;;64.97;;
80694;SDS011;70059;42.702;23.312;2024-01-15T03:44:15;161.27;;;71.82;;
80694;SDS011;70059;42.702;23.312;2024-01-15T03:46:41;149.10;;;66.57;;
80694;SDS011;70059;42.702;23.312;2024-01-15T03:49:07;139.73;;;62.90;;
80694;SDS011;70059;42.702;23.312;2024-01-15T03:51:32;122.70;;;54.45;;
80694;SDS011;70059;42.702;23.312;2024-01-15T03:53:58;120.95;;;50.05;;
80694;SDS011;70059;42.702;23.312;2024-01-15T03:56:24;112.03;;;49.30;;
80694;SDS011;70059;42.702;23.312;2024-01-15T03:58:50;102.15;;;43.55;;
80694;SDS011;70059;42.702;23.312;2024-01-15T04:01:15;99.13;;;44.22;;
80694;SDS011;70059;42.702;23.312;2024-01-15T04:03:41;89.38;;;42.03;;
80694;SDS011;70059;42.702;23.312;2024-01-15T04:06:06;87.07;;;41.03;;
80694;SDS011;70059;42.702;23.312;2024-01-15T04:08:32;95.63;;;42.78;;
80694;SDS011;70059;42.702;23.312;2024-01-15T04:10:58;93.95;;;41.92;;
80694;SDS011;70059;42.702;23.312;2024-01-15T04:13:23;88.95;;;41.92;;
80694;SDS011;70059;42.702;23.312;2024-01-15T04:15:50;97.82;;;43.47;;
80694;SDS011;70059;42.702;23.312;2024-01-15T04:18:16;98.28;;;43.40;;
80694;SDS011;70059;42.702;23.312;2024-01-15T04:20:42;96.38;;;44.28;;
80694;SDS011;70059;42.702;23.312;2024-01-15T04:23:08;100.85;;;44.63;;
80694;SDS011;70059;42.702;23.312;2024-01-15T04:25:34;92.18;;;40.47;;
80694;SDS011;70059;42.702;23.312;2024-01-15T04:28:00;85.53;;;39.67;;
80694;SDS011;70059;42.702;23.312;2024-01-15T04:30:26;89.85;;;39.58;;
80694;SDS011;70059;42.702;23.312;2024-01-15T04:32:52;73.70;;;35.55;;
80694;SDS011;70059;42.702;23.312;2024-01-15T04:35:17;73.45;;;36.28;;
80694;SDS011;70059;42.702;23.312;2024-01-15T04:37:43;78.45;;;36.65;;
80694;SDS011;70059;42.702;23.312;2024-01-15T04:40:09;80.28;;;37.15;;
80694;SDS011;70059;42.702;23.312;2024-01-15T04:42:36;76.78;;;37.35;;
80694;SDS011;70059;42.702;23.312;2024-01-15T04:45:02;90.90;;;43.03;;
80694;SDS011;70059;42.702;23.312;2024-01-15T04:47:28;93.53;;;45.15;;
80694;SDS011;70059;42.702;23.312;2024-01-15T04:49:54;104.57;;;44.50;;
80694;SDS011;70059;42.702;23.312;2024-01-15T04:52:19;108.15;;;47.53;;
80694;SDS011;70059;42.702;23.312;2024-01-15T04:54:45;114.70;;;52.03;;
80694;SDS011;70059;42.702;23.312;2024-01-15T04:57:11;112.05;;;48.63;;
80694;SDS011;70059;42.702;23.312;2024-01-15T04:59:37;114.68;;;50.25;;
80694;SDS011;70059;42.702;23.312;2024-01-15T05:02:02;103.78;;;46.42;;
80694;SDS011;70059;42.702;23.312;2024-01-15T05:04:28;106.50;;;45.33;;
80694;SDS011;70059;42.702;23.312;2024-01-15T05:06:54;97.18;;;44.60;;
80694;SDS011;70059;42.702;23.312;2024-01-15T05:09:20;106.80;;;48.40;;
80694;SDS011;70059;42.702;23.312;2024-01-15T05:11:46;108.13;;;48.42;;
80694;SDS011;70059;42.702;23.312;2024-01-15T05:14:12;104.32;;;45.42;;
80694;SDS011;70059;42.702;23.312;2024-01-15T05:16:38;115.28;;;47.10;;
80694;SDS011;70059;42.702;23.312;2024-01-15T05:19:06;90.03;;;42.85;;
80694;SDS011;70059;42.702;23.312;2024-01-15T05:21:32;102.50;;;45.78;;
80694;SDS011;70059;42.702;23.312;2024-01-15T05:23:58;101.90;;;46.45;;
80694;SDS011;70059;42.702;23.312;2024-01-15T05:26:24;102.80;;;47.92;;
80694;SDS011;70059;42.702;23.312;2024-01-15T05:28:49;100.88;;;46.30;;
80694;SDS011;70059;42.702;23.312;2024-01-15T05:31:18;105.97;;;49.25;;
80694;SDS011;70059;42.702;23.312;2024-01-15T05:33:45;101.10;;;46.42;;
80694;SDS011;70059;42.702;23.312;2024-01-15T05:36:11;100.60;;;45.15;;
80694;SDS011;70059;42.702;23.312;2024-01-15T05:38:37;102.40;;;46.10;;
80694;SDS011;70059;42.702;23.312;2024-01-15T05:41:06;104.78;;;48.40;;
80694;SDS011;70059;42.702;23.312;2024-01-15T05:43:32;110.85;;;49.03;;
80694;SDS011;70059;42.702;23.312;2024-01-15T05:46:00;107.80;;;47.85;;
80694;SDS011;70059;42.702;23.312;2024-01-15T05:48:31;115.40;;;51.15;;
80694;SDS011;70059;42.702;23.312;2024-01-15T05:50:57;116.22;;;48.95;;
80694;SDS011;70059;42.702;23.312;2024-01-15T05:53:23;105.88;;;47.85;;
80694;SDS011;70059;42.702;23.312;2024-01-15T05:55:49;110.63;;;50.42;;
80694;SDS011;70059;42.702;23.312;2024-01-15T05:58:19;103.10;;;45.50;;
80694;SDS011;70059;42.702;23.312;2024-01-15T06:00:45;107.03;;;47.10;;
80694;SDS011;70059;42.702;23.312;2024-01-15T06:03:14;125.70;;;58.80;;
80694;SDS011;70059;42.702;23.312;2024-01-15T06:05:43;143.23;;;59.53;;
80694;SDS011;70059;42.702;23.312;2024-01-15T06:08:11;134.35;;;57.53;;
80694;SDS011;70059;42.702;23.312;2024-01-15T06:10:36;122.82;;;54.70;;
80694;SDS011;70059;42.702;23.312;2024-01-15T06:13:03;113.90;;;51.35;;
80694;SDS011;70059;42.702;23.312;2024-01-15T06:15:38;127.00;;;55.03;;
80694;SDS011;70059;42.702;23.312;2024-01-15T06:18:05;141.38;;;58.80;;
80694;SDS011;70059;42.702;23.312;2024-01-15T06:20:32;127.70;;;57.80;;
80694;SDS011;70059;42.702;23.312;2024-01-15T06:22:58;129.38;;;58.53;;
80694;SDS011;70059;42.702;23.312;2024-01-15T06:25:23;141.57;;;59.88;;
80694;SDS011;70059;42.702;23.312;2024-01-15T06:27:49;136.65;;;58.80;;
80694;SDS011;70059;42.702;23.312;2024-01-15T06:30:15;146.23;;;62.80;;
80694;SDS011;70059;42.702;23.312;2024-01-15T06:32:43;152.00;;;64.55;;
80694;SDS011;70059;42.702;23.312;2024-01-15T06:35:09;137.35;;;60.15;;
80694;SDS011;70059;42.702;23.312;2024-01-15T06:37:36;135.55;;;58.97;;
80694;SDS011;70059;42.702;23.312;2024-01-15T06:40:02;142.07;;;60.25;;
80694;SDS011;70059;42.702;23.312;2024-01-15T06:42:29;144.05;;;60.65;;
80694;SDS011;70059;42.702;23.312;2024-01-15T06:44:58;122.97;;;57.13;;
80694;SDS011;70059;42.702;23.312;2024-01-15T06:47:23;123.07;;;58.22;;
80694;SDS011;70059;42.702;23.312;2024-01-15T06:49:49;140.40;;;59.92;;
80694;SDS011;70059;42.702;23.312;2024-01-15T06:52:16;131.60;;;59.17;;
80694;SDS011;70059;42.702;23.312;2024-01-15T06:54:42;131.48;;;59.00;;
80694;SDS011;70059;42.702;23.312;2024-01-15T06:57:10;128.40;;;57.22;;
80694;SDS011;70059;42.702;23.312;2024-01-15T06:59:36;128.85;;;58.33;;
80694;SDS011;70059;42.702;23.312;2024-01-15T07:02:02;130.68;;;58.90;;
80694;SDS011;70059;42.702;23.312;2024-01-15T07:04:34;133.52;;;58.35;;
80694;SDS011;70059;42.702;23.312;2024-01-15T07:07:07;134.40;;;61.63;;
80694;SDS011;70059;42.702;23.312;2024-01-15T07:09:33;132.80;;;58.00;;
80694;SDS011;70059;42.702;23.312;2024-01-15T07:12:02;147.73;;;63.75;;
80694;SDS011;70059;42.702;23.312;2024-01-15T07:14:29;145.13;;;60.10;;
80694;SDS011;70059;42.702;23.312;2024-01-15T07:16:58;137.80;;;62.47;;
80694;SDS011;70059;42.702;23.312;2024-01-15T07:19:27;143.80;;;62.80;;
80694;SDS011;70059;42.702;23.312;2024-01-15T07:21:52;129.43;;;60.25;;
80694;SDS011;70059;42.702;23.312;2024-01-15T07:24:18;145.23;;;64.10;;
80694;SDS011;70059;42.702;23.312;2024-01-15T07:33:38;133.88;;;59.83;;
80694;SDS011;70059;42.702;23.312;2024-01-15T07:36:04;130.13;;;59.47;;
80694;SDS011;70059;42.702;23.312;2024-01-15T07:38:30;148.15;;;63.50;;
80694;SDS011;70059;42.702;23.312;2024-01-15T07:40:56;138.32;;;63.00;;
80694;SDS011;70059;42.702;23.312;2024-01-15T07:43:22;138.93;;;61.05;;
80694;SDS011;70059;42.702;23.312;2024-01-15T07:45:47;134.05;;;58.22;;
80694;SDS011;70059;42.702;23.312;2024-01-15T07:48:13;124.95;;;60.65;;
80694;SDS011;70059;42.702;23.312;2024-01-15T07:50:39;126.47;;;60.97;;
80694;SDS011;70059;42.702;23.312;2024-01-15T07:53:07;138.77;;;58.80;;
80694;SDS011;70059;42.702;23.312;2024-01-15T07:55:36;149.45;;;66.97;;
80694;SDS011;70059;42.702;23.312;2024-01-15T07:58:02;164.05;;;71.78;;
80694;SDS011;70059;42.702;23.312;2024-01-15T08:00:32;160.80;;;72.32;;
80694;SDS011;70059;42.702;23.312;2024-01-15T08:03:04;153.75;;;70.85;;
80694;SDS011;70059;42.702;23.312;2024-01-15T08:05:31;163.82;;;74.18;;
80694;SDS011;70059;42.702;23.312;2024-01-15T08:08:15;152.30;;;71.75;;
80694;SDS011;70059;42.702;23.312;2024-01-15T08:10:46;166.57;;;78.22;;
80694;SDS011;70059;42.702;23.312;2024-01-15T08:13:26;154.23;;;74.40;;
80694;SDS011;70059;42.702;23.312;2024-01-15T08:16:01;148.95;;;73.63;;
80694;SDS011;70059;42.702;23.312;2024-01-15T08:18:32;154.43;;;75.03;;
80694;SDS011;70059;42.702;23.312;2024-01-15T08:21:01;146.25;;;74.13;;
80694;SDS011;70059;42.702;23.312;2024-01-15T08:23:30;167.15;;;78.35;;
80694;SDS011;70059;42.702;23.312;2024-01-15T08:25:57;166.45;;;79.85;;
80694;SDS011;70059;42.702;23.312;2024-01-15T08:28:23;160.13;;;76.15;;
80694;SDS011;70059;42.702;23.312;2024-01-15T08:30:51;156.27;;;80.35;;
80694;SDS011;70059;42.702;23.312;2024-01-15T08:33:18;159.02;;;75.68;;
80694;SDS011;70059;42.702;23.312;2024-01-15T08:35:44;152.60;;;78.75;;
80694;SDS011;70059;42.702;23.312;2024-01-15T08:38:10;163.95;;;79.78;;
80694;SDS011;70059;42.702;23.312;2024-01-15T08:40:36;155.38;;;80.68;;
80694;SDS011;70059;42.702;23.312;2024-01-15T08:43:02;169.82;;;84.80;;
80694;SDS011;70059;42.702;23.312;2024-01-15T08:45:28;170.02;;;86.30;;
80694;SDS011;70059;42.702;23.312;2024-01-15T08:47:54;161.38;;;81.72;;
80694;SDS011;70059;42.702;23.312;2024-01-15T08:50:19;165.55;;;80.93;;
80694;SDS011;70059;42.702;23.312;2024-01-15T08:52:46;172.52;;;83.43;;
80694;SDS011;70059;42.702;23.312;2024-01-15T08:55:19;162.80;;;85.75;;
80694;SDS011;70059;42.702;23.312;2024-01-15T08:57:47;149.25;;;79.15;;
80694;SDS011;70059;42.702;23.312;2024-01-15T09:00:45;156.00;;;77.85;;
80694;SDS011;70059;42.702;23.312;2024-01-15T09:03:20;159.90;;;78.45;;
80694;SDS011;70059;42.702;23.312;2024-01-15T09:05:53;183.93;;;91.68;;
80694;SDS011;70059;42.702;23.312;2024-01-15T09:08:20;160.50;;;82.40;;
80694;SDS011;70059;42.702;23.312;2024-01-15T09:10:48;157.45;;;80.32;;
80694;SDS011;70059;42.702;23.312;2024-01-15T09:13:14;165.45;;;86.05;;
80694;SDS011;70059;42.702;23.312;2024-01-15T09:15:42;173.80;;;87.38;;
80694;SDS011;70059;42.702;23.312;2024-01-15T09:18:08;178.85;;;89.97;;
80694;SDS011;70059;42.702;23.312;2024-01-15T09:20:34;169.25;;;87.60;;
80694;SDS011;70059;42.702;23.312;2024-01-15T09:23:01;172.38;;;87.68;;
80694;SDS011;70059;42.702;23.312;2024-01-15T09:25:27;169.50;;;82.35;;
80694;SDS011;70059;42.702;23.312;2024-01-15T09:27:55;170.80;;;84.57;;
80694;SDS011;70059;42.702;23.312;2024-01-15T09:30:21;173.02;;;84.85;;
80694;SDS011;70059;42.702;23.312;2024-01-15T09:32:47;166.85;;;83.22;;
80694;SDS011;70059;42.702;23.312;2024-01-15T09:35:13;150.85;;;78.72;;
80694;SDS011;70059;42.702;23.312;2024-01-15T09:37:41;159.57;;;81.03;;
80694;SDS011;70059;42.702;23.312;2024-01-15T09:40:08;150.50;;;77.68;;
80694;SDS011;70059;42.702;23.312;2024-01-15T09:42:47;150.60;;;78.35;;
80694;SDS011;70059;42.702;23.312;2024-01-15T09:45:17;156.43;;;79.70;;
80694;SDS011;70059;42.702;23.312;2024-01-15T09:47:49;159.88;;;80.45;;
80694;SDS011;70059;42.702;23.312;2024-01-15T09:50:17;151.98;;;81.32;;
80694;SDS011;70059;42.702;23.312;2024-01-15T09:52:43;164.32;;;80.35;;
80694;SDS011;70059;42.702;23.312;2024-01-15T09:55:17;158.57;;;76.25;;
80694;SDS011;70059;42.702;23.312;2024-01-15T09:57:43;151.98;;;73.45;;
80694;SDS011;70059;42.702;23.312;2024-01-15T10:00:10;144.65;;;69.97;;
80694;SDS011;70059;42.702;23.312;2024-01-15T10:02:36;133.65;;;68.03;;
80694;SDS011;70059;42.702;23.312;2024-01-15T10:05:02;136.18;;;68.90;;
80694;SDS011;70059;42.702;23.312;2024-01-15T10:07:29;136.85;;;71.65;;
80694;SDS011;70059;42.702;23.312;2024-01-15T10:10:00;151.57;;;77.68;;
80694;SDS011;70059;42.702;23.312;2024-01-15T10:12:26;143.70;;;71.28;;
80694;SDS011;70059;42.702;23.312;2024-01-15T10:14:52;122.03;;;67.15;;
80694;SDS011;70059;42.702;23.312;2024-01-15T10:17:18;113.28;;;67.43;;
80694;SDS011;70059;42.702;23.312;2024-01-15T10:19:47;113.68;;;62.83;;
80694;SDS011;70059;42.702;23.312;2024-01-15T10:22:16;111.10;;;63.20;;
80694;SDS011;70059;42.702;23.312;2024-01-15T10:24:45;123.30;;;69.28;;
80694;SDS011;70059;42.702;23.312;2024-01-15T10:27:20;102.78;;;58.85;;
80694;SDS011;70059;42.702;23.312;2024-01-15T10:33:24;102.70;;;60.20;;
80694;SDS011;70059;42.702;23.312;2024-01-15T10:35:54;87.95;;;55.53;;
80694;SDS011;70059;42.702;23.312;2024-01-15T10:38:24;108.55;;;64.63;;
80694;SDS011;70059;42.702;23.312;2024-01-15T10:40:51;100.65;;;59.67;;
80694;SDS011;70059;42.702;23.312;2024-01-15T10:43:20;94.72;;;57.08;;
80694;SDS011;70059;42.702;23.312;2024-01-15T10:45:47;86.03;;;53.00;;
80694;SDS011;70059;42.702;23.312;2024-01-15T10:48:16;84.15;;;53.58;;
80694;SDS011;70059;42.702;23.312;2024-01-15T10:50:43;85.88;;;51.67;;
80694;SDS011;70059;42.702;23.312;2024-01-15T10:53:16;80.45;;;49.78;;
80694;SDS011;70059;42.702;23.312;2024-01-15T10:55:48;90.50;;;54.03;;
80694;SDS011;70059;42.702;23.312;2024-01-15T10:58:16;84.30;;;52.45;;
80694;SDS011;70059;42.702;23.312;2024-01-15T11:00:42;76.78;;;49.65;;
80694;SDS011;70059;42.702;23.312;2024-01-15T11:03:16;84.03;;;49.97;;
80694;SDS011;70059;42.702;23.312;2024-01-15T11:05:46;80.47;;;48.10;;
80694;SDS011;70059;42.702;23.312;2024-01-15T11:08:12;76.97;;;46.08;;
80694;SDS011;70059;42.702;23.312;2024-01-15T11:10:42;63.47;;;38.92;;
80694;SDS011;70059;42.702;23.312;2024-01-15T11:19:48;71.93;;;44.60;;
80694;SDS011;70059;42.702;23.312;2024-01-15T11:22:47;60.65;;;39.20;;
80694;SDS011;70059;42.702;23.312;2024-01-15T11:25:21;62.72;;;37.35;;
80694;SDS011;70059;42.702;23.312;2024-01-15T11:27:54;54.42;;;32.20;;
80694;SDS011;70059;42.702;23.312;2024-01-15T11:30:20;62.15;;;35.92;;
80694;SDS011;70059;42.702;23.312;2024-01-15T11:32:57;64.33;;;37.67;;
80694;SDS011;70059;42.702;23.312;2024-01-15T11:35:22;62.00;;;38.28;;
80694;SDS011;70059;42.702;23.312;2024-01-15T11:40:20;61.00;;;39.35;;
80694;SDS011;70059;42.702;23.312;2024-01-15T11:42:47;57.33;;;36.70;;
80694;SDS011;70059;42.702;23.312;2024-01-15T11:45:20;58.53;;;34.65;;
80694;SDS011;70059;42.702;23.312;2024-01-15T11:48:08;49.78;;;31.13;;
80694;SDS011;70059;42.702;23.312;2024-01-15T11:50:41;54.28;;;31.75;;
80694;SDS011;70059;42.702;23.312;2024-01-15T11:55:52;51.08;;;32.28;;
80694;SDS011;70059;42.702;23.312;2024-01-15T11:58:23;55.42;;;32.47;;
80694;SDS011;70059;42.702;23.312;2024-01-15T12:00:49;57.58;;;34.17;;
80694;SDS011;70059;42.702;23.312;2024-01-15T12:03:17;57.67;;;31.70;;
80694;SDS011;70059;42.702;23.312;2024-01-15T12:05:45;56.90;;;32.53;;
80694;SDS011;70059;42.702;23.312;2024-01-15T12:08:24;56.63;;;32.53;;
80694;SDS011;70059;42.702;23.312;2024-01-15T12:10:51;56.10;;;30.85;;
80694;SDS011;70059;42.702;23.312;2024-01-15T12:13:17;56.38;;;30.48;;
80694;SDS011;70059;42.702;23.312;2024-01-15T12:15:44;53.72;;;32.20;;
80694;SDS011;70059;42.702;23.312;2024-01-15T12:18:13;70.65;;;35.80;;
80694;SDS011;70059;42.702;23.312;2024-01-15T12:20:40;75.95;;;41.60;;
80694;SDS011;70059;42.702;23.312;2024-01-15T12:23:07;68.70;;;38.38;;
80694;SDS011;70059;42.702;23.312;2024-01-15T12:25:33;70.03;;;38.65;;
80694;SDS011;70059;42.702;23.312;2024-01-15T12:28:00;65.93;;;37.63;;
80694;SDS011;70059;42.702;23.312;2024-01-15T12:30:26;68.93;;;40.42;;
80694;SDS011;70059;42.702;23.312;2024-01-15T12:32:53;64.43;;;36.05;;
80694;SDS011;70059;42.702;23.312;2024-01-15T12:35:25;68.93;;;36.83;;
80694;SDS011;70059;42.702;23.312;2024-01-15T12:37:51;72.78;;;37.47;;
80694;SDS011;70059;42.702;23.312;2024-01-15T12:40:19;54.67;;;33.47;;
80694;SDS011;70059;42.702;23.312;2024-01-15T12:42:45;57.35;;;33.55;;
80694;SDS011;70059;42.702;23.312;2024-01-15T12:45:11;53.00;;;31.40;;
80694;SDS011;70059;42.702;23.312;2024-01-15T12:47:41;60.03;;;33.65;;
80694;SDS011;70059;42.702;23.312;2024-01-15T12:50:10;63.30;;;37.53;;
80694;SDS011;70059;42.702;23.312;2024-01-15T12:52:37;65.15;;;36.22;;
80694;SDS011;70059;42.702;23.312;2024-01-15T12:55:05;68.00;;;35.38;;
80694;SDS011;70059;42.702;23.312;2024-01-15T12:57:32;56.08;;;31.58;;
80694;SDS011;70059;42.702;23.312;2024-01-15T12:59:59;48.50;;;26.77;;
80694;SDS011;70059;42.702;23.312;2024-01-15T13:02:25;45.35;;;27.92;;
80694;SDS011;70059;42.702;23.312;2024-01-15T13:04:51;50.58;;;31.58;;
80694;SDS011;70059;42.702;23.312;2024-01-15T13:07:17;52.17;;;33.67;;
80694;SDS011;70059;42.702;23.312;2024-01-15T13:09:42;56.03;;;30.27;;
80694;SDS011;70059;42.702;23.312;2024-01-15T13:12:08;54.58;;;31.48;;
80694;SDS011;70059;42.702;23.312;2024-01-15T13:14:34;51.15;;;29.20;;
80694;SDS011;70059;42.702;23.312;2024-01-15T13:17:00;45.88;;;26.92;;
80694;SDS011;70059;42.702;23.312;2024-01-15T13:19:26;50.33;;;27.70;;
80694;SDS011;70059;42.702;23.312;2024-01-15T13:21:52;47.60;;;27.80;;
80694;SDS011;70059;42.702;23.312;2024-01-15T13:24:18;50.97;;;27.77;;
80694;SDS011;70059;42.702;23.312;2024-01-15T13:26:44;49.92;;;28.70;;
80694;SDS011;70059;42.702;23.312;2024-01-15T13:29:10;55.33;;;31.30;;
80694;SDS011;70059;42.702;23.312;2024-01-15T13:31:36;55.33;;;30.35;;
80694;SDS011;70059;42.702;23.312;2024-01-15T13:34:04;51.97;;;28.75;;
80694;SDS011;70059;42.702;23.312;2024-01-15T13:36:30;56.47;;;30.75;;
80694;SDS011;70059;42.702;23.312;2024-01-15T13:38:55;54.92;;;29.17;;
80694;SDS011;70059;42.702;23.312;2024-01-15T13:41:21;63.67;;;35.75;;
80694;SDS011;70059;42.702;23.312;2024-01-15T13:43:50;59.15;;;30.02;;
80694;SDS011;70059;42.702;23.312;2024-01-15T13:46:16;44.95;;;29.30;;
80694;SDS011;70059;42.702;23.312;2024-01-15T13:48:42;142.98;;;58.75;;
80694;SDS011;70059;42.702;23.312;2024-01-15T13:51:08;74.95;;;37.83;;
80694;SDS011;70059;42.702;23.312;2024-01-15T13:53:34;56.42;;;31.52;;
80694;SDS011;70059;42.702;23.312;2024-01-15T13:56:00;58.78;;;32.47;;
80694;SDS011;70059;42.702;23.312;2024-01-15T13:58:25;65.85;;;36.65;;
80694;SDS011;70059;42.702;23.312;2024-01-15T14:00:51;66.82;;;37.50;;
80694;SDS011;70059;42.702;23.312;2024-01-15T14:03:17;51.83;;;28.10;;
80694;SDS011;70059;42.702;23.312;2024-01-15T14:05:44;48.08;;;28.52;;
80694;SDS011;70059;42.702;23.312;2024-01-15T14:08:10;50.03;;;30.67;;
80694;SDS011;70059;42.702;23.312;2024-01-15T14:10:42;58.65;;;34.75;;
80694;SDS011;70059;42.702;23.312;2024-01-15T14:13:07;68.80;;;37.97;;
80694;SDS011;70059;42.702;23.312;2024-01-15T14:15:33;68.95;;;38.50;;
80694;SDS011;70059;42.702;23.312;2024-01-15T14:17:59;62.75;;;35.42;;
80694;SDS011;70059;42.702;23.312;2024-01-15T14:20:26;75.22;;;39.08;;
80694;SDS011;70059;42.702;23.312;2024-01-15T14:22:53;79.60;;;39.33;;